createdAt,value
2023-02-14T00:00:59.290Z,98805.94
2023-02-14T00:03:26.231Z,98799.38
2023-02-14T00:05:53.128Z,98801.88
2023-02-14T00:08:19.927Z,98799.56
2023-02-14T00:10:46.777Z,98805.25
2023-02-14T00:13:13.861Z,98811.66
2023-02-14T00:15:40.681Z,98795.59
2023-02-14T00:18:07.498Z,98804.66
2023-02-14T00:20:34.390Z,98798.47
2023-02-14T00:23:01.313Z,98808.22
2023-02-14T00:25:28.303Z,98820.31
2023-02-14T00:27:55.764Z,98813.78
2023-02-14T00:30:22.742Z,98816.53
2023-02-14T00:32:49.884Z,98819.19
2023-02-14T00:35:16.982Z,98828.75
2023-02-14T00:37:43.739Z,98829.91
2023-02-14T00:40:12.028Z,98828.59
2023-02-14T00:42:39.606Z,98835.34
2023-02-14T00:45:06.654Z,98831.16
2023-02-14T00:47:35.421Z,98827.41
2023-02-14T00:50:03.145Z,98823.56
2023-02-14T00:52:31.458Z,98819.34
2023-02-14T00:54:58.778Z,98817.31
2023-02-14T00:57:25.800Z,98802.72
2023-02-14T00:59:52.819Z,98796.22
2023-02-14T01:02:21.086Z,98790.50
2023-02-14T01:04:47.953Z,98793.34
2023-02-14T01:07:14.960Z,98793.25
2023-02-14T01:09:42.077Z,98791.41
2023-02-14T01:12:08.846Z,98798.72
2023-02-14T01:14:35.541Z,98770.38
2023-02-14T01:17:02.202Z,98770.28
2023-02-14T01:19:28.963Z,98766.41
2023-02-14T01:21:55.713Z,98761.34
2023-02-14T01:24:23.026Z,98756.97
2023-02-14T01:26:49.750Z,98731.94
2023-02-14T01:29:16.537Z,98740.75
2023-02-14T01:31:43.447Z,98726.22
2023-02-14T01:34:10.409Z,98719.38
2023-02-14T01:36:39.291Z,98715.78
2023-02-14T01:39:09.184Z,98721.63
2023-02-14T01:41:38.247Z,98715.78
2023-02-14T01:44:15.671Z,98720.06
2023-02-14T01:46:44.422Z,98712.38
2023-02-14T01:49:13.785Z,98723.22
2023-02-14T01:51:48.773Z,98715.00
2023-02-14T01:54:18.128Z,98712.34
2023-02-14T01:56:49.799Z,98711.78
2023-02-14T01:59:20.900Z,98720.25
2023-02-14T02:01:49.853Z,98721.84
2023-02-14T02:04:26.823Z,98710.13
2023-02-14T02:07:01.790Z,98716.03
2023-02-14T02:09:35.794Z,98713.59
2023-02-14T02:12:03.373Z,98709.25
2023-02-14T02:14:30.500Z,98711.25
2023-02-14T02:17:19.055Z,98704.94
2023-02-14T02:20:07.585Z,98700.81
2023-02-14T02:22:40.373Z,98699.00
2023-02-14T02:25:37.059Z,98696.66
2023-02-14T02:28:03.944Z,98691.47
2023-02-14T02:31:05.942Z,98686.78
2023-02-14T02:34:00.355Z,98679.91
2023-02-14T02:36:46.984Z,98675.22
2023-02-14T02:39:35.040Z,98673.75
2023-02-14T02:42:20.773Z,98665.63
2023-02-14T02:44:56.353Z,98666.19
2023-02-14T02:47:22.996Z,98665.00
2023-02-14T02:50:16.476Z,98665.38
2023-02-14T02:53:06.545Z,98664.84
2023-02-14T02:56:16.636Z,98667.38
2023-02-14T02:58:52.984Z,98659.03
2023-02-14T03:01:23.628Z,98660.81
2023-02-14T03:04:13.497Z,98659.59
2023-02-14T03:06:40.223Z,98666.56
2023-02-14T03:09:29.874Z,98663.41
2023-02-14T03:12:07.656Z,98667.50
2023-02-14T03:14:48.500Z,98663.94
2023-02-14T03:17:49.056Z,98669.88
2023-02-14T03:20:32.397Z,98664.50
2023-02-14T03:23:29.385Z,98663.84
2023-02-14T03:25:59.231Z,98655.81
2023-02-14T03:28:47.845Z,98661.69
2023-02-14T03:31:28.541Z,98656.91
2023-02-14T03:34:05.247Z,98648.81
2023-02-14T03:36:38.376Z,98663.56
2023-02-14T03:39:16.425Z,98642.19
2023-02-14T03:41:50.763Z,98637.81
2023-02-14T03:44:22.345Z,98625.22
2023-02-14T03:46:53.653Z,98625.78
2023-02-14T03:49:25.526Z,98624.47
2023-02-14T03:51:56.224Z,98632.03
2023-02-14T03:54:25.816Z,98626.50
2023-02-14T03:56:59.832Z,98638.84
2023-02-14T03:59:28.592Z,98622.06
2023-02-14T04:02:23.612Z,98629.28
2023-02-14T04:04:52.516Z,98627.41
2023-02-14T04:07:21.959Z,98637.84
2023-02-14T04:09:48.888Z,98633.34
2023-02-14T04:12:21.668Z,98644.34
2023-02-14T04:14:50.674Z,98639.84
2023-02-14T04:17:36.059Z,98636.50
2023-02-14T04:20:02.765Z,98641.44
2023-02-14T04:22:29.445Z,98642.41
2023-02-14T04:24:56.152Z,98645.19
2023-02-14T04:27:22.965Z,98644.19
2023-02-14T04:29:50.356Z,98646.34
2023-02-14T04:32:19.951Z,98659.13
2023-02-14T04:34:46.900Z,98647.28
2023-02-14T04:37:14.279Z,98646.28
2023-02-14T04:39:41.072Z,98650.97
2023-02-14T04:42:08.454Z,98644.31
2023-02-14T04:44:35.553Z,98635.16
2023-02-14T04:47:02.432Z,98645.75
2023-02-14T04:49:29.189Z,98640.19
2023-02-14T04:51:56.073Z,98648.09
2023-02-14T04:54:23.004Z,98636.88
2023-02-14T04:56:49.812Z,98623.03
2023-02-14T04:59:16.649Z,98614.81
2023-02-14T05:01:46.567Z,98603.25
2023-02-14T05:04:13.505Z,98608.41
2023-02-14T05:06:40.410Z,98618.16
2023-02-14T05:09:07.165Z,98614.03
2023-02-14T05:11:34.191Z,98608.97
2023-02-14T05:14:01.037Z,98606.38
2023-02-14T05:16:27.821Z,98605.84
2023-02-14T05:18:54.626Z,98617.16
2023-02-14T05:21:21.357Z,98619.09
2023-02-14T05:23:48.231Z,98619.94
2023-02-14T05:26:15.212Z,98626.66
2023-02-14T05:28:42.666Z,98612.66
2023-02-14T05:31:10.068Z,98617.38
2023-02-14T05:33:36.802Z,98611.88
2023-02-14T05:36:04.147Z,98619.00
2023-02-14T05:38:33.612Z,98607.25
2023-02-14T05:41:01.230Z,98602.75
2023-02-14T05:43:28.438Z,98603.44
2023-02-14T05:45:55.299Z,98602.19
2023-02-14T05:48:22.603Z,98606.75
2023-02-14T05:50:49.634Z,98599.31
2023-02-14T05:53:17.021Z,98608.16
2023-02-14T05:55:43.857Z,98617.66
2023-02-14T05:58:12.185Z,98622.19
2023-02-14T06:00:41.221Z,98615.28
2023-02-14T06:03:08.536Z,98623.94
2023-02-14T06:05:35.438Z,98622.38
2023-02-14T06:08:02.293Z,98628.72
2023-02-14T06:10:29.148Z,98632.44
2023-02-14T06:12:55.912Z,98633.22
2023-02-14T06:15:22.938Z,98634.22
2023-02-14T06:17:57.347Z,98622.00
2023-02-14T06:20:25.388Z,98631.25
2023-02-14T06:22:52.939Z,98627.72
2023-02-14T06:25:20.766Z,98611.94
2023-02-14T06:27:49.257Z,98612.53
2023-02-14T06:30:17.980Z,98615.47
2023-02-14T06:32:45.514Z,98621.94
2023-02-14T06:35:14.362Z,98618.03
2023-02-14T06:37:42.487Z,98625.50
2023-02-14T06:40:10.637Z,98625.50
2023-02-14T06:42:38.270Z,98627.06
2023-02-14T06:45:06.420Z,98628.03
2023-02-14T06:47:34.985Z,98637.13
2023-02-14T06:50:04.975Z,98639.72
2023-02-14T06:52:33.469Z,98648.72
2023-02-14T06:55:00.527Z,98641.28
2023-02-14T06:57:27.826Z,98651.09
2023-02-14T06:59:54.687Z,98646.19
2023-02-14T07:02:24.684Z,98652.88
2023-02-14T07:04:51.971Z,98648.72
2023-02-14T07:07:18.776Z,98665.06
2023-02-14T07:09:45.692Z,98663.28
2023-02-14T07:12:12.863Z,98658.16
2023-02-14T07:14:39.836Z,98663.44
2023-02-14T07:17:06.640Z,98666.00
2023-02-14T07:19:33.452Z,98653.94
2023-02-14T07:22:00.379Z,98652.94
2023-02-14T07:24:27.520Z,98657.66
2023-02-14T07:26:54.440Z,98664.50
2023-02-14T07:29:22.669Z,98653.06
2023-02-14T07:31:49.594Z,98656.81
2023-02-14T07:34:16.667Z,98658.56
2023-02-14T07:36:44.405Z,98658.31
2023-02-14T07:39:11.405Z,98657.97
2023-02-14T07:41:38.551Z,98652.25
2023-02-14T07:44:09.635Z,98652.84
2023-02-14T07:46:36.753Z,98656.97
2023-02-14T07:49:04.020Z,98660.47
2023-02-14T07:51:30.989Z,98654.16
2023-02-14T07:53:57.929Z,98659.88
2023-02-14T07:56:24.870Z,98664.84
2023-02-14T07:58:52.224Z,98660.34
2023-02-14T08:01:19.394Z,98671.97
2023-02-14T08:03:49.712Z,98658.50
2023-02-14T08:06:18.157Z,98663.25
2023-02-14T08:08:45.861Z,98655.59
2023-02-14T08:11:33.729Z,98652.97
2023-02-14T08:14:01.028Z,98651.66
2023-02-14T08:16:28.001Z,98651.06
2023-02-14T08:18:54.858Z,98656.78
2023-02-14T08:21:21.692Z,98673.88
2023-02-14T08:23:48.452Z,98712.97
2023-02-14T08:26:15.962Z,98669.31
2023-02-14T08:28:43.324Z,98670.47
2023-02-14T08:31:11.101Z,98673.59
2023-02-14T08:33:38.021Z,98661.25
2023-02-14T08:36:05.095Z,98675.03
2023-02-14T08:38:31.886Z,98676.41
2023-02-14T08:41:04.399Z,98678.38
2023-02-14T08:43:34.273Z,98670.47
2023-02-14T08:46:02.047Z,98676.97
2023-02-14T08:48:28.972Z,98682.94
2023-02-14T08:50:55.768Z,98682.72
2023-02-14T08:53:22.608Z,98676.22
2023-02-14T08:55:49.645Z,98681.38
2023-02-14T08:58:16.586Z,98679.53
2023-02-14T09:00:43.535Z,98685.66
2023-02-14T09:03:10.923Z,98683.91
2023-02-14T09:05:37.720Z,98677.00
2023-02-14T09:08:04.873Z,98685.44
2023-02-14T09:10:31.751Z,98681.69
2023-02-14T09:12:58.661Z,98687.59
2023-02-14T09:15:25.437Z,98674.50
2023-02-14T09:17:52.393Z,98683.69
2023-02-14T09:20:19.655Z,98680.16
2023-02-14T09:22:48.666Z,98679.31
2023-02-14T09:25:15.957Z,98683.69
2023-02-14T09:27:42.649Z,98677.78
2023-02-14T09:30:11.132Z,98701.16
2023-02-14T09:32:37.893Z,98695.31
2023-02-14T09:35:23.218Z,98701.41
2023-02-14T09:37:53.097Z,98693.84
2023-02-14T09:40:20.853Z,98689.53
2023-02-14T09:42:57.947Z,98695.03
2023-02-14T09:45:27.550Z,98691.16
2023-02-14T09:48:36.447Z,98695.91
2023-02-14T09:51:10.946Z,98691.22
2023-02-14T09:53:45.730Z,98692.59
2023-02-14T09:56:20.576Z,98685.09
2023-02-14T09:58:57.335Z,98689.09
2023-02-14T10:01:32.576Z,98691.75
2023-02-14T10:04:18.787Z,98686.69
2023-02-14T10:06:58.874Z,98683.50
2023-02-14T10:09:40.514Z,98680.44
2023-02-14T10:12:16.342Z,98678.75
2023-02-14T10:14:43.866Z,98683.72
2023-02-14T10:17:20.096Z,98671.31
2023-02-14T10:19:53.822Z,98671.50
2023-02-14T10:22:26.950Z,98670.63
2023-02-14T10:25:06.195Z,98704.66
2023-02-14T10:27:37.147Z,98689.66
2023-02-14T10:30:16.576Z,98683.31
2023-02-14T10:33:01.525Z,98676.09
2023-02-14T10:35:37.611Z,98683.19
2023-02-14T10:38:25.602Z,98671.34
2023-02-14T10:41:01.260Z,98671.03
2023-02-14T10:43:52.948Z,98663.09
2023-02-14T10:46:38.205Z,98664.41
2023-02-14T10:49:30.014Z,98664.50
2023-02-14T10:51:57.048Z,98667.16
2023-02-14T10:54:32.914Z,98686.47
2023-02-14T10:57:11.898Z,98658.53
2023-02-14T10:59:49.160Z,98670.72
2023-02-14T11:02:18.320Z,98685.28
2023-02-14T11:04:47.420Z,98672.34
2023-02-14T11:07:16.640Z,98675.09
2023-02-14T11:09:43.678Z,98654.94
2023-02-14T11:12:10.694Z,98655.47
2023-02-14T11:14:40.658Z,98660.53
2023-02-14T11:17:30.384Z,98652.19
2023-02-14T11:20:22.499Z,98652.81
2023-02-14T11:22:50.236Z,98659.19
2023-02-14T11:25:29.499Z,98648.88
2023-02-14T11:28:05.779Z,98639.88
2023-02-14T11:30:41.239Z,98632.13
2023-02-14T11:33:22.423Z,98633.81
2023-02-14T11:35:53.337Z,98640.03
2023-02-14T11:38:40.528Z,98629.69
2023-02-14T11:41:11.656Z,98642.84
2023-02-14T11:43:44.693Z,98630.81
2023-02-14T11:46:20.552Z,98622.00
2023-02-14T11:49:02.147Z,98609.00
2023-02-14T11:51:36.112Z,98614.81
2023-02-14T11:54:05.833Z,98610.75
2023-02-14T11:57:05.536Z,98607.47
2023-02-14T11:59:37.168Z,98614.38
2023-02-14T12:02:23.065Z,98598.94
2023-02-14T12:04:55.087Z,98599.44
2023-02-14T12:07:24.695Z,98602.34
2023-02-14T12:10:05.765Z,98599.22
2023-02-14T12:12:32.778Z,98596.53
2023-02-14T12:15:37.775Z,98601.16
2023-02-14T12:18:38.353Z,98587.97
2023-02-14T12:21:42.434Z,98579.69
2023-02-14T12:24:33.637Z,98571.56
2023-02-14T12:27:37.861Z,98577.28
2023-02-14T12:30:20.024Z,98561.81
2023-02-14T12:32:52.697Z,98550.16
2023-02-14T12:35:22.111Z,98538.63
2023-02-14T12:38:11.599Z,98533.59
2023-02-14T12:41:01.763Z,98537.00
2023-02-14T12:43:45.210Z,98536.31
2023-02-14T12:46:39.620Z,98532.38
2023-02-14T12:49:31.097Z,98543.94
2023-02-14T12:52:11.623Z,98548.22
2023-02-14T12:54:53.437Z,98529.38
2023-02-14T12:57:32.078Z,98534.22
2023-02-14T13:00:17.586Z,98534.66
2023-02-14T13:03:27.169Z,98521.09
2023-02-14T13:06:23.826Z,98524.72
2023-02-14T13:09:18.240Z,98524.69
2023-02-14T13:12:15.921Z,98501.91
2023-02-14T13:14:42.692Z,98494.25
2023-02-14T13:17:35.040Z,98502.09
2023-02-14T13:20:19.998Z,98490.53
2023-02-14T13:22:48.546Z,98498.09
2023-02-14T13:25:35.732Z,98488.53
2023-02-14T13:28:10.223Z,98490.44
2023-02-14T13:30:38.926Z,98490.94
2023-02-14T13:33:34.100Z,98486.72
2023-02-14T13:36:11.112Z,98478.06
2023-02-14T13:38:48.274Z,98467.69
2023-02-14T13:41:16.897Z,98463.97
2023-02-14T13:43:50.106Z,98481.63
2023-02-14T13:46:19.752Z,98483.19
2023-02-14T13:48:58.684Z,98477.75
2023-02-14T13:51:47.723Z,98479.59
2023-02-14T13:54:20.976Z,98479.41
2023-02-14T13:56:48.486Z,98474.28
2023-02-14T13:59:33.310Z,98474.81
2023-02-14T14:02:30.225Z,98485.91
2023-02-14T14:04:57.135Z,98470.78
2023-02-14T14:07:30.368Z,98476.13
2023-02-14T14:09:59.626Z,98474.91
2023-02-14T14:12:26.314Z,98463.66
2023-02-14T14:15:05.405Z,98468.56
2023-02-14T14:17:33.709Z,98466.13
2023-02-14T14:20:02.869Z,98456.38
2023-02-14T14:22:30.262Z,98458.50
2023-02-14T14:25:06.554Z,98462.66
2023-02-14T14:27:40.313Z,98469.44
2023-02-14T14:30:18.400Z,98458.06
2023-02-14T14:32:45.593Z,98464.78
2023-02-14T14:35:12.568Z,98445.22
2023-02-14T14:37:51.590Z,98448.03
2023-02-14T14:40:27.390Z,98450.03
2023-02-14T14:42:57.441Z,98443.56
2023-02-14T14:45:26.798Z,98445.00
2023-02-14T14:47:56.909Z,98446.22
2023-02-14T14:50:33.168Z,98444.78
2023-02-14T14:53:05.425Z,98439.88
2023-02-14T14:55:35.471Z,98443.66
2023-02-14T14:58:05.216Z,98446.78
2023-02-14T15:00:36.002Z,98440.78
2023-02-14T15:03:11.642Z,98429.81
2023-02-14T15:05:40.646Z,98431.16
2023-02-14T15:08:27.976Z,98430.72
2023-02-14T15:11:39.136Z,98434.28
2023-02-14T15:14:11.068Z,98427.16
2023-02-14T15:17:00.627Z,98426.47
2023-02-14T15:19:34.514Z,98416.44
2023-02-14T15:22:03.184Z,98427.16
2023-02-14T15:24:31.643Z,98416.88
2023-02-14T15:26:58.437Z,98420.34
2023-02-14T15:29:28.053Z,98417.41
2023-02-14T15:31:57.300Z,98412.72
2023-02-14T15:34:31.552Z,98417.09
2023-02-14T15:37:03.996Z,98416.56
2023-02-14T15:39:48.097Z,98425.59
2023-02-14T15:42:26.042Z,98419.69
2023-02-14T15:45:17.558Z,98409.50
2023-02-14T15:47:47.933Z,98414.06
2023-02-14T15:50:36.377Z,98410.16
2023-02-14T15:53:21.999Z,98398.13
2023-02-14T15:55:50.108Z,98410.06
2023-02-14T15:58:24.075Z,98401.50
2023-02-14T16:00:52.700Z,98391.44
2023-02-14T16:03:33.916Z,98391.00
2023-02-14T16:06:01.032Z,98393.91
2023-02-14T16:08:30.724Z,98388.44
2023-02-14T16:11:14.783Z,98379.19
2023-02-14T16:13:44.995Z,98378.94
2023-02-14T16:16:14.034Z,98377.94
2023-02-14T16:18:42.538Z,98371.91
2023-02-14T16:21:31.442Z,98374.13
2023-02-14T16:24:13.145Z,98369.13
2023-02-14T16:26:42.185Z,98370.22
2023-02-14T16:29:14.989Z,98367.66
2023-02-14T16:32:14.240Z,98362.88
2023-02-14T16:34:34.886Z,98358.72
2023-02-14T16:37:08.481Z,98363.19
2023-02-14T16:39:35.585Z,98358.06
2023-02-14T16:42:03.419Z,98367.09
2023-02-14T16:44:30.909Z,98365.97
2023-02-14T16:46:57.677Z,98364.00
2023-02-14T16:49:24.369Z,98355.19
2023-02-14T16:51:52.395Z,98360.41
2023-02-14T16:54:21.487Z,98360.19
2023-02-14T16:56:48.130Z,98360.75
2023-02-14T16:59:14.879Z,98359.47
2023-02-14T17:01:41.621Z,98363.84
2023-02-14T17:04:08.560Z,98356.47
2023-02-14T17:06:40.791Z,98358.84
2023-02-14T17:09:12.273Z,98359.28
2023-02-14T17:11:45.611Z,98365.97
2023-02-14T17:14:17.736Z,98349.78
2023-02-14T17:16:44.503Z,98365.63
2023-02-14T17:19:11.933Z,98362.28
2023-02-14T17:21:38.825Z,98343.66
2023-02-14T17:24:05.693Z,98345.00
2023-02-14T17:26:33.920Z,98336.19
2023-02-14T17:29:00.913Z,98342.75
2023-02-14T17:31:28.741Z,98346.00
2023-02-14T17:33:55.678Z,98349.13
2023-02-14T17:36:24.191Z,98355.38
2023-02-14T17:38:53.650Z,98342.97
2023-02-14T17:41:23.200Z,98335.19
2023-02-14T17:43:51.089Z,98334.66
2023-02-14T17:46:20.979Z,98345.09
2023-02-14T17:48:49.150Z,98346.66
2023-02-14T17:51:18.014Z,98342.75
2023-02-14T17:53:44.789Z,98340.63
2023-02-14T17:56:23.362Z,98330.59
2023-02-14T17:58:52.169Z,98328.03
2023-02-14T18:01:25.176Z,98335.16
2023-02-14T18:03:53.781Z,98330.47
2023-02-14T18:06:21.601Z,98332.41
2023-02-14T18:08:50.603Z,98332.16
2023-02-14T18:11:18.754Z,98333.63
2023-02-14T18:13:46.248Z,98334.38
2023-02-14T18:16:17.079Z,98320.91
2023-02-14T18:18:44.575Z,98324.09
2023-02-14T18:21:14.288Z,98338.03
2023-02-14T18:23:41.937Z,98349.50
2023-02-14T18:26:12.686Z,98332.13
2023-02-14T18:28:40.503Z,98314.09
2023-02-14T18:31:18.405Z,98314.31
2023-02-14T18:33:46.871Z,98317.75
2023-02-14T18:36:16.585Z,98315.31
2023-02-14T18:38:45.710Z,98311.94
2023-02-14T18:41:14.939Z,98304.03
2023-02-14T18:43:41.973Z,98292.34
2023-02-14T18:46:11.035Z,98291.22
2023-02-14T18:48:38.091Z,98290.88
2023-02-14T18:51:09.513Z,98303.94
2023-02-14T18:53:37.295Z,98289.22
2023-02-14T18:56:06.063Z,98301.69
2023-02-14T18:58:33.942Z,98308.28
2023-02-14T19:01:11.596Z,98304.25
2023-02-14T19:03:38.895Z,98288.22
2023-02-14T19:06:06.517Z,98283.28
2023-02-14T19:08:34.760Z,98282.75
2023-02-14T19:11:02.498Z,98285.41
2023-02-14T19:13:29.939Z,98270.16
2023-02-14T19:15:57.336Z,98273.72
2023-02-14T19:18:25.745Z,98270.25
2023-02-14T19:20:53.008Z,98275.59
2023-02-14T19:23:19.879Z,98269.25
2023-02-14T19:25:46.622Z,98274.94
2023-02-14T19:28:13.699Z,98279.72
2023-02-14T19:30:40.494Z,98276.41
2023-02-14T19:33:07.452Z,98280.84
2023-02-14T19:35:34.182Z,98267.38
2023-02-14T19:38:03.562Z,98268.03
2023-02-14T19:40:31.018Z,98263.03
2023-02-14T19:42:58.299Z,98264.25
2023-02-14T19:45:25.109Z,98261.44
2023-02-14T19:47:52.060Z,98242.84
2023-02-14T19:50:21.584Z,98241.84
2023-02-14T19:52:48.794Z,98244.75
2023-02-14T19:55:22.960Z,98239.84
2023-02-14T19:57:49.774Z,98235.38
2023-02-14T20:00:17.558Z,98229.25
2023-02-14T20:02:48.375Z,98229.47
2023-02-14T20:05:17.342Z,98223.00
2023-02-14T20:07:49.628Z,98221.25
2023-02-14T20:10:17.955Z,98229.69
2023-02-14T20:12:46.069Z,98224.56
2023-02-14T20:15:13.850Z,98219.66
2023-02-14T20:17:42.148Z,98212.53
2023-02-14T20:20:14.257Z,98215.97
2023-02-14T20:22:42.454Z,98217.97
2023-02-14T20:25:11.056Z,98210.97
2023-02-14T20:27:39.595Z,98212.66
2023-02-14T20:30:08.403Z,98201.38
2023-02-14T20:32:36.583Z,98199.16
2023-02-14T20:35:04.989Z,98203.63
2023-02-14T20:37:33.282Z,98204.50
2023-02-14T20:40:01.455Z,98199.38
2023-02-14T20:42:29.478Z,98193.56
2023-02-14T20:44:57.079Z,98193.25
2023-02-14T20:47:24.742Z,98189.44
2023-02-14T20:49:52.209Z,98186.44
2023-02-14T20:52:19.845Z,98188.44
2023-02-14T20:54:46.819Z,98190.66
2023-02-14T20:57:13.712Z,98193.44
2023-02-14T20:59:44.779Z,98186.88
2023-02-14T21:02:12.162Z,98184.66
2023-02-14T21:04:38.947Z,98186.31
2023-02-14T21:07:09.005Z,98183.75
2023-02-14T21:09:37.939Z,98181.19
2023-02-14T21:12:06.871Z,98173.31
2023-02-14T21:14:33.950Z,98172.59
2023-02-14T21:17:00.775Z,98174.81
2023-02-14T21:19:28.702Z,98162.34
2023-02-14T21:21:55.494Z,98170.28
2023-02-14T21:24:22.246Z,98168.94
2023-02-14T21:26:48.953Z,98171.56
2023-02-14T21:29:15.645Z,98167.31
2023-02-14T21:31:43.132Z,98162.19
2023-02-14T21:34:10.058Z,98169.09
2023-02-14T21:36:37.018Z,98161.66
2023-02-14T21:39:06.055Z,98159.75
2023-02-14T21:41:34.381Z,98157.84
2023-02-14T21:44:02.025Z,98154.19
2023-02-14T21:46:31.683Z,98149.19
2023-02-14T21:49:21.974Z,98143.38
2023-02-14T21:51:49.418Z,98150.28
2023-02-14T21:54:16.944Z,98158.50
2023-02-14T21:56:43.909Z,98143.28
2023-02-14T21:59:11.515Z,98152.03
2023-02-14T22:01:40.116Z,98157.34
2023-02-14T22:04:09.336Z,98147.69
2023-02-14T22:06:38.080Z,98146.28
2023-02-14T22:09:05.686Z,98142.00
2023-02-14T22:11:32.361Z,98139.00
2023-02-14T22:14:00.319Z,98144.78
2023-02-14T22:16:27.283Z,98142.47
2023-02-14T22:18:54.220Z,98145.09
2023-02-14T22:21:24.240Z,98145.56
2023-02-14T22:23:51.742Z,98148.75
2023-02-14T22:26:18.379Z,98149.22
2023-02-14T22:28:47.655Z,98143.56
2023-02-14T22:31:17.327Z,98149.03
2023-02-14T22:33:44.772Z,98165.88
2023-02-14T22:36:11.539Z,98165.06
2023-02-14T22:38:38.759Z,98161.06
2023-02-14T22:41:06.873Z,98176.41
2023-02-14T22:43:34.742Z,98157.16
2023-02-14T22:46:06.928Z,98157.50
2023-02-14T22:48:35.407Z,98159.22
2023-02-14T22:51:20.013Z,98153.47
2023-02-14T22:53:47.079Z,98142.44
2023-02-14T22:56:17.047Z,98137.69
2023-02-14T22:58:44.423Z,98126.97
2023-02-14T23:01:16.853Z,98131.66
2023-02-14T23:03:44.434Z,98132.88
2023-02-14T23:06:12.131Z,98120.84
2023-02-14T23:08:43.741Z,98125.53
2023-02-14T23:11:12.970Z,98115.09
2023-02-14T23:13:58.589Z,98120.97
2023-02-14T23:16:44.573Z,98125.25
2023-02-14T23:19:38.601Z,98122.34
2023-02-14T23:22:10.188Z,98121.25
2023-02-14T23:24:37.233Z,98137.50
2023-02-14T23:27:04.637Z,98133.28
2023-02-14T23:29:31.964Z,98128.91
2023-02-14T23:31:58.710Z,98124.91
2023-02-14T23:34:30.929Z,98131.03
2023-02-14T23:36:58.386Z,98118.66
2023-02-14T23:39:25.526Z,98115.09
2023-02-14T23:41:53.017Z,98120.94
2023-02-14T23:44:26.481Z,98126.56
2023-02-14T23:46:55.922Z,98126.34
2023-02-14T23:49:24.016Z,98125.91
2023-02-14T23:51:51.828Z,98127.81
2023-02-14T23:54:19.702Z,98138.03
2023-02-14T23:56:46.625Z,98139.81
2023-02-14T23:59:15.413Z,98134.16
